Time;durP1;ratioP1;P1;durP2;ratioP2;P2;SDS_P1;SDS_P2;PMS_P1;PMS_P2;Temp;Humidity;BMP_temperature;BMP_pressure;BME280_temperature;BME280_humidity;BME280_pressure;Samples;Min_cycle;Max_cycle;Signal;HPM_P1;HPM_P2
2023/01/16 00:01:55;;;;;;;25.48;13.82;;;4.70;68.50;;;;;;4879961;28;114439;-84
2023/01/16 00:04:22;;;;;;;26.23;13.27;;;4.80;68.40;;;;;;4929355;28;114627;-83
2023/01/16 00:06:50;;;;;;;19.50;12.50;;;4.80;68.30;;;;;;4910949;28;115954;-84
2023/01/16 00:09:17;;;;;;;22.30;12.15;;;4.90;68.10;;;;;;4879223;28;119441;-83
2023/01/16 00:11:45;;;;;;;19.38;11.75;;;4.90;68.00;;;;;;4911838;28;114729;-85
2023/01/16 00:14:12;;;;;;;23.10;12.98;;;4.90;67.90;;;;;;4929065;28;114843;-84
2023/01/16 00:16:40;;;;;;;16.65;10.77;;;5.00;67.90;;;;;;4927046;28;115244;-84
2023/01/16 00:19:07;;;;;;;28.08;15.75;;;5.10;68.00;;;;;;4910609;28;116524;-84
2023/01/16 00:21:34;;;;;;;33.40;18.25;;;5.10;67.90;;;;;;4926101;28;114766;-84
2023/01/16 00:24:01;;;;;;;36.55;18.75;;;5.10;67.80;;;;;;4928345;28;114413;-84
2023/01/16 00:26:29;;;;;;;30.45;17.58;;;5.10;67.80;;;;;;4926883;28;115121;-84
2023/01/16 00:28:56;;;;;;;34.10;17.65;;;5.10;67.80;;;;;;4910096;28;116039;-84
2023/01/16 00:31:24;;;;;;;29.63;16.48;;;5.10;67.90;;;;;;4928619;28;114368;-84
2023/01/16 00:33:52;;;;;;;28.23;14.85;;;5.10;67.80;;;;;;4928963;28;114517;-86
2023/01/16 00:36:19;;;;;;;21.90;13.88;;;5.20;67.60;;;;;;4922537;28;117394;-84
2023/01/16 00:38:47;;;;;;;16.05;10.02;;;5.10;67.60;;;;;;4949467;28;115737;-84
2023/01/16 00:41:14;;;;;;;14.52;8.65;;;5.00;67.60;;;;;;4920489;28;116800;-84
2023/01/16 00:43:42;;;;;;;17.63;9.27;;;4.90;67.70;;;;;;4927611;28;114457;-84
2023/01/16 00:46:10;;;;;;;14.20;7.45;;;4.80;67.90;;;;;;4909080;28;118693;-84
2023/01/16 00:48:38;;;;;;;15.73;8.13;;;4.80;68.10;;;;;;4926733;28;114702;-84
2023/01/16 00:51:05;;;;;;;13.00;7.63;;;4.80;68.30;;;;;;4893614;28;114702;-85
2023/01/16 00:53:32;;;;;;;14.43;7.55;;;4.90;68.10;;;;;;4926025;28;114514;-85
2023/01/16 00:55:59;;;;;;;12.00;7.15;;;4.90;67.90;;;;;;4909754;28;118684;-84
2023/01/16 00:58:27;;;;;;;10.98;6.57;;;4.90;67.70;;;;;;4927298;28;116682;-83
2023/01/16 01:00:54;;;;;;;11.40;6.20;;;4.90;67.80;;;;;;4911180;28;114376;-85
2023/01/16 01:03:21;;;;;;;9.90;5.72;;;4.80;67.50;;;;;;4911093;28;114647;-84
2023/01/16 01:05:48;;;;;;;7.55;4.78;;;4.80;67.50;;;;;;4909814;28;117247;-86
2023/01/16 01:08:15;;;;;;;7.82;5.00;;;4.80;67.40;;;;;;4877379;28;114764;-84
2023/01/16 01:10:43;;;;;;;7.60;4.97;;;4.80;67.30;;;;;;4925903;28;114592;-84
2023/01/16 01:13:10;;;;;;;6.82;4.03;;;4.90;67.20;;;;;;4908664;28;114671;-84
2023/01/16 01:15:38;;;;;;;7.05;4.10;;;4.90;67.00;;;;;;4927619;28;115636;-83
2023/01/16 01:18:05;;;;;;;7.95;3.58;;;4.90;66.90;;;;;;4927214;28;115750;-84
2023/01/16 01:20:41;;;;;;;7.78;3.72;;;4.90;66.80;;;;;;4927889;28;114343;-84
2023/01/16 01:23:08;;;;;;;6.85;3.50;;;4.90;66.70;;;;;;4886988;28;114452;-84
2023/01/16 01:25:38;;;;;;;6.40;3.40;;;4.90;66.50;;;;;;4909420;28;115087;-83
2023/01/16 01:28:05;;;;;;;5.28;2.72;;;5.00;66.20;;;;;;4909484;28;115019;-84
2023/01/16 01:30:33;;;;;;;5.63;3.17;;;4.90;66.00;;;;;;4908546;28;114875;-84
2023/01/16 01:33:00;;;;;;;4.30;2.38;;;4.90;65.70;;;;;;4927847;28;114370;-84
2023/01/16 01:35:27;;;;;;;4.53;2.35;;;4.90;65.60;;;;;;4877008;28;118044;-84
2023/01/16 01:37:54;;;;;;;3.70;2.20;;;4.90;65.50;;;;;;4926723;28;115194;-84
2023/01/16 01:40:21;;;;;;;4.07;2.55;;;4.90;65.40;;;;;;4926011;28;114440;-84
2023/01/16 01:42:52;;;;;;;4.72;2.55;;;4.80;65.20;;;;;;4910413;28;114415;-84
2023/01/16 01:45:29;;;;;;;4.53;2.50;;;4.80;65.10;;;;;;4925502;28;115102;-85
2023/01/16 01:48:11;;;;;;;4.97;2.60;;;4.80;65.10;;;;;;4909824;28;114724;-84
2023/01/16 01:50:50;;;;;;;4.90;2.92;;;4.80;65.40;;;;;;4908869;28;114395;-84
2023/01/16 01:53:43;;;;;;;5.32;2.72;;;4.70;65.40;;;;;;4926902;28;114506;-84
2023/01/16 01:56:18;;;;;;;4.63;2.45;;;4.70;65.30;;;;;;4893634;28;118588;-85
2023/01/16 01:58:46;;;;;;;6.55;3.38;;;4.70;65.00;;;;;;4909525;28;114666;-83
2023/01/16 02:01:13;;;;;;;7.22;3.40;;;4.70;65.20;;;;;;4910204;28;115749;-85
2023/01/16 02:03:56;;;;;;;6.45;3.45;;;4.70;65.30;;;;;;4925534;28;115176;-85
2023/01/16 02:06:30;;;;;;;6.68;2.90;;;4.70;65.20;;;;;;4924345;28;115602;-85
2023/01/16 02:08:57;;;;;;;6.13;2.95;;;4.70;65.10;;;;;;4907228;28;117955;-85
2023/01/16 02:11:51;;;;;;;4.07;2.47;;;4.60;65.00;;;;;;4908972;28;114446;-84
2023/01/16 02:14:18;;;;;;;5.38;2.78;;;4.60;65.00;;;;;;4900624;28;114566;-83
2023/01/16 02:20:07;;;;;;;4.03;2.70;;;4.50;65.00;;;;;;4924474;28;115482;-85
2023/01/16 02:22:59;;;;;;;4.13;1.92;;;4.40;64.80;;;;;;4927128;28;114730;-85
2023/01/16 02:26:04;;;;;;;5.10;2.92;;;4.40;64.80;;;;;;4917321;28;114591;-84
2023/01/16 02:29:08;;;;;;;8.45;3.58;;;4.30;64.90;;;;;;4927000;28;115150;-83
2023/01/16 02:31:44;;;;;;;3.72;2.20;;;4.30;64.90;;;;;;4925224;28;114769;-84
2023/01/16 02:34:32;;;;;;;3.80;2.25;;;4.20;64.60;;;;;;4909099;28;114529;-83
2023/01/16 02:37:30;;;;;;;3.97;2.15;;;4.20;64.70;;;;;;4908443;28;114503;-84
2023/01/16 02:40:52;;;;;;;5.30;2.92;;;4.10;64.80;;;;;;4925088;28;115179;-84
2023/01/16 02:43:39;;;;;;;4.25;2.15;;;4.10;65.10;;;;;;4907408;28;115996;-84
2023/01/16 02:46:47;;;;;;;5.25;2.72;;;4.10;64.90;;;;;;4909561;28;114703;-84
2023/01/16 02:49:28;;;;;;;3.13;2.08;;;4.20;64.90;;;;;;4892321;28;116603;-83
2023/01/16 02:52:19;;;;;;;4.95;2.00;;;4.10;64.90;;;;;;4907732;28;115757;-84
2023/01/16 02:55:09;;;;;;;5.68;2.35;;;4.10;64.80;;;;;;4923358;28;116761;-84
2023/01/16 02:57:40;;;;;;;4.32;2.10;;;4.10;64.80;;;;;;4907448;28;115111;-83
2023/01/16 03:00:09;;;;;;;4.43;2.40;;;4.10;64.70;;;;;;4907866;28;118541;-84
2023/01/16 03:02:36;;;;;;;5.00;2.30;;;4.10;64.60;;;;;;4923290;28;115670;-84
2023/01/16 03:05:04;;;;;;;5.45;2.72;;;4.10;64.50;;;;;;4923453;28;114701;-84
2023/01/16 03:07:42;;;;;;;5.03;2.28;;;4.20;64.50;;;;;;4907198;28;114731;-83
2023/01/16 03:10:42;;;;;;;4.35;2.28;;;4.20;64.30;;;;;;4924349;28;114511;-83
2023/01/16 03:13:22;;;;;;;4.28;2.30;;;4.30;64.20;;;;;;4923253;28;115019;-83
2023/01/16 03:16:21;;;;;;;4.63;2.80;;;4.30;64.10;;;;;;4907180;28;114870;-83
2023/01/16 03:19:48;;;;;;;4.97;2.15;;;4.20;63.70;;;;;;4908406;28;114617;-84
2023/01/16 03:22:31;;;;;;;4.38;2.38;;;4.30;63.60;;;;;;4865015;28;114730;-84
2023/01/16 03:25:18;;;;;;;4.75;2.03;;;4.30;63.70;;;;;;4888364;28;115124;-84
2023/01/16 03:28:11;;;;;;;5.38;2.40;;;4.20;63.50;;;;;;4923293;28;114377;-83
2023/01/16 03:30:54;;;;;;;4.50;2.60;;;4.20;63.40;;;;;;4907260;28;114453;-84
2023/01/16 03:33:44;;;;;;;6.68;2.70;;;4.20;63.30;;;;;;4908839;28;114597;-84
2023/01/16 03:36:26;;;;;;;6.72;2.67;;;4.20;63.30;;;;;;4924202;28;115273;-84
2023/01/16 03:38:53;;;;;;;4.65;2.05;;;4.20;63.30;;;;;;4907519;28;116104;-84
2023/01/16 03:41:23;;;;;;;4.30;2.28;;;4.20;63.20;;;;;;4909072;28;114669;-84
2023/01/16 03:43:52;;;;;;;4.75;2.50;;;4.10;63.20;;;;;;4905799;28;114581;-84
2023/01/16 03:46:24;;;;;;;4.45;2.28;;;4.10;63.30;;;;;;4891889;28;116087;-84
2023/01/16 03:49:00;;;;;;;5.47;2.15;;;4.10;63.30;;;;;;4907959;28;114727;-84
2023/01/16 03:51:41;;;;;;;4.88;2.03;;;4.20;63.00;;;;;;4908471;28;114369;-84
2023/01/16 03:54:36;;;;;;;5.10;2.20;;;4.10;62.80;;;;;;4908810;28;114648;-84
2023/01/16 03:57:57;;;;;;;3.08;1.85;;;4.10;63.10;;;;;;4907581;28;115703;-83
2023/01/16 04:00:27;;;;;;;4.38;1.95;;;4.10;63.10;;;;;;4906230;28;114884;-83
2023/01/16 04:03:23;;;;;;;3.88;2.17;;;4.10;63.20;;;;;;4893116;28;114450;-84
2023/01/16 04:06:19;;;;;;;5.07;2.35;;;4.10;63.20;;;;;;4871008;28;114457;-84
2023/01/16 04:08:47;;;;;;;3.90;1.98;;;4.10;63.50;;;;;;4907212;28;117022;-84
2023/01/16 04:11:17;;;;;;;4.68;1.95;;;4.10;63.30;;;;;;4897626;28;116380;-83
2023/01/16 04:13:44;;;;;;;3.13;1.65;;;4.10;63.10;;;;;;4914327;28;114360;-83
2023/01/16 04:16:14;;;;;;;4.25;1.60;;;4.20;63.10;;;;;;4892951;28;114710;-84
2023/01/16 04:18:41;;;;;;;4.18;1.65;;;4.20;63.20;;;;;;4877375;28;115030;-84
2023/01/16 04:21:08;;;;;;;3.65;1.38;;;4.20;62.90;;;;;;4891951;28;114692;-85
2023/01/16 04:23:36;;;;;;;2.97;1.55;;;4.20;62.70;;;;;;4910296;28;115886;-84
2023/01/16 04:26:06;;;;;;;2.63;1.50;;;4.20;62.60;;;;;;4927691;28;114610;-84
2023/01/16 04:28:33;;;;;;;2.75;1.42;;;4.30;62.10;;;;;;4926826;28;115370;-84
2023/01/16 04:31:00;;;;;;;2.85;1.30;;;4.20;62.10;;;;;;4927570;28;116497;-84
2023/01/16 04:33:28;;;;;;;3.20;1.35;;;4.30;62.00;;;;;;4927851;28;117662;-84
2023/01/16 04:35:55;;;;;;;3.10;1.63;;;4.20;61.90;;;;;;4928924;28;114716;-84
2023/01/16 04:38:22;;;;;;;3.67;1.75;;;4.30;61.70;;;;;;4926271;28;115149;-84
2023/01/16 04:40:53;;;;;;;4.95;2.00;;;4.30;61.60;;;;;;4911016;28;114711;-84
2023/01/16 04:43:21;;;;;;;4.95;2.05;;;4.40;61.30;;;;;;4910589;28;114357;-84
2023/01/16 04:45:48;;;;;;;3.85;2.10;;;4.40;61.50;;;;;;4927085;28;114490;-84
2023/01/16 04:48:16;;;;;;;7.30;2.25;;;4.40;61.30;;;;;;4928002;28;115165;-84
2023/01/16 04:50:47;;;;;;;4.10;2.13;;;4.40;61.30;;;;;;4910023;28;117845;-84
2023/01/16 04:53:15;;;;;;;5.07;2.38;;;4.40;61.30;;;;;;4928577;28;114414;-84
2023/01/16 04:55:42;;;;;;;6.13;3.33;;;4.40;61.40;;;;;;4912063;28;114526;-84
2023/01/16 04:58:09;;;;;;;7.50;4.28;;;4.40;61.60;;;;;;4910834;28;115221;-84
2023/01/16 05:00:36;;;;;;;8.70;4.80;;;4.30;61.90;;;;;;4928333;28;115146;-84
2023/01/16 05:03:03;;;;;;;12.55;7.38;;;4.20;62.40;;;;;;4927033;28;114477;-84
2023/01/16 05:05:31;;;;;;;11.80;7.00;;;4.20;62.80;;;;;;4929401;28;114636;-84
2023/01/16 05:08:16;;;;;;;12.45;7.57;;;4.20;63.10;;;;;;4927093;28;115249;-83
2023/01/16 05:10:44;;;;;;;15.63;8.38;;;4.20;63.50;;;;;;4926978;28;115303;-84
2023/01/16 05:13:11;;;;;;;14.98;8.85;;;4.20;63.60;;;;;;4926561;28;114356;-84
2023/01/16 05:15:38;;;;;;;14.50;9.00;;;4.10;63.70;;;;;;4911077;28;114770;-85
2023/01/16 05:18:06;;;;;;;15.68;8.30;;;4.10;63.80;;;;;;4910135;28;114405;-84
2023/01/16 05:20:33;;;;;;;11.27;6.80;;;4.10;63.80;;;;;;4926991;28;114571;-84
2023/01/16 05:23:01;;;;;;;11.30;6.13;;;4.20;63.80;;;;;;4910566;28;114397;-84
2023/01/16 05:25:30;;;;;;;11.07;6.05;;;4.10;63.80;;;;;;4927849;28;114324;-84
2023/01/16 05:27:57;;;;;;;10.57;5.93;;;4.10;64.00;;;;;;4925670;28;115053;-84
2023/01/16 05:30:24;;;;;;;9.23;4.97;;;4.10;64.10;;;;;;4923476;28;117047;-84
2023/01/16 05:32:51;;;;;;;10.65;5.15;;;4.10;64.10;;;;;;4925582;28;114651;-84
2023/01/16 05:35:19;;;;;;;9.10;5.25;;;4.20;64.10;;;;;;4927099;28;114446;-84
2023/01/16 05:37:47;;;;;;;9.23;5.47;;;4.20;64.00;;;;;;4925046;28;115318;-84
2023/01/16 05:40:14;;;;;;;13.32;5.57;;;4.20;64.00;;;;;;4909521;28;114705;-84
2023/01/16 05:42:42;;;;;;;9.38;5.18;;;4.20;63.90;;;;;;4910051;28;115345;-84
2023/01/16 05:45:10;;;;;;;11.63;5.72;;;4.20;63.90;;;;;;4906853;28;114520;-83
2023/01/16 05:47:37;;;;;;;9.10;5.03;;;4.20;63.90;;;;;;4921020;28;115233;-84
2023/01/16 05:50:05;;;;;;;11.82;6.07;;;4.30;64.00;;;;;;4893372;28;114679;-84
2023/01/16 05:52:32;;;;;;;14.85;6.57;;;4.30;63.70;;;;;;4910067;28;114666;-84
2023/01/16 05:54:59;;;;;;;10.18;6.72;;;4.30;63.40;;;;;;4929162;28;114446;-84
2023/01/16 05:57:27;;;;;;;14.02;6.65;;;4.30;63.50;;;;;;4931554;28;117357;-84
2023/01/16 05:59:54;;;;;;;11.43;6.57;;;4.20;63.40;;;;;;4912721;28;114647;-85
2023/01/16 06:02:21;;;;;;;12.32;6.47;;;4.20;63.20;;;;;;4927591;28;114308;-85
2023/01/16 06:04:48;;;;;;;13.95;6.53;;;4.20;63.30;;;;;;4927640;28;114374;-85
2023/01/16 06:07:18;;;;;;;11.20;6.45;;;4.20;63.20;;;;;;4908691;28;117240;-86
2023/01/16 06:09:46;;;;;;;10.50;5.97;;;4.20;63.40;;;;;;4914522;28;115078;-85
2023/01/16 06:12:16;;;;;;;9.95;6.03;;;4.20;63.30;;;;;;4919007;28;114712;-84
2023/01/16 06:14:46;;;;;;;11.40;5.38;;;4.20;63.40;;;;;;4908777;28;114727;-85
2023/01/16 06:17:15;;;;;;;11.35;6.13;;;4.20;63.50;;;;;;4904850;28;115124;-84
2023/01/16 06:19:49;;;;;;;;;;;4.20;63.70;;;;;;4895104;28;118303;-84
2023/01/16 06:22:17;;;;;;;13.93;7.63;;;4.20;63.70;;;;;;4903562;28;114942;-84
2023/01/16 06:24:47;;;;;;;13.38;7.10;;;4.20;64.00;;;;;;4908622;28;114455;-85
2023/01/16 06:27:15;;;;;;;14.45;6.90;;;4.30;63.80;;;;;;4917115;28;115218;-85
2023/01/16 06:29:43;;;;;;;11.10;6.32;;;4.30;63.60;;;;;;4904640;28;115297;-84
2023/01/16 06:32:10;;;;;;;12.95;6.30;;;4.20;63.80;;;;;;4904747;28;114713;-85
2023/01/16 06:34:37;;;;;;;10.48;6.22;;;4.30;63.70;;;;;;4912702;28;114519;-84
2023/01/16 06:37:04;;;;;;;12.90;7.00;;;4.30;63.80;;;;;;4921137;28;115149;-85
2023/01/16 06:39:31;;;;;;;13.98;7.43;;;4.40;63.30;;;;;;4906746;28;118784;-84
2023/01/16 06:41:59;;;;;;;13.52;7.53;;;4.30;62.90;;;;;;4917382;28;114816;-83
2023/01/16 06:44:26;;;;;;;13.75;6.80;;;4.20;62.80;;;;;;4915504;28;118512;-85
2023/01/16 06:46:54;;;;;;;16.83;7.35;;;4.20;62.80;;;;;;4909253;28;115138;-85
2023/01/16 06:49:22;;;;;;;12.88;5.93;;;4.10;62.90;;;;;;4920177;28;114745;-85
2023/01/16 06:51:49;;;;;;;11.73;6.07;;;4.10;63.00;;;;;;4879403;28;114830;-85
2023/01/16 06:54:16;;;;;;;11.68;5.00;;;4.10;62.80;;;;;;4917362;28;114229;-85
2023/01/16 06:56:46;;;;;;;10.27;4.95;;;4.00;62.80;;;;;;4916202;28;115210;-84
2023/01/16 06:59:14;;;;;;;10.98;5.00;;;3.90;63.00;;;;;;4919040;28;116018;-84
2023/01/16 07:01:41;;;;;;;9.60;5.03;;;3.90;63.30;;;;;;4902392;28;114483;-83
2023/01/16 07:04:15;;;;;;;9.85;4.57;;;3.80;63.40;;;;;;4905857;28;114679;-85
2023/01/16 07:06:43;;;;;;;10.52;5.30;;;3.80;63.60;;;;;;4895123;28;118088;-83
2023/01/16 07:09:11;;;;;;;9.90;4.85;;;3.80;63.60;;;;;;4890351;28;114732;-85
2023/01/16 07:11:49;;;;;;;7.50;4.28;;;3.80;63.80;;;;;;4917236;28;116817;-85
2023/01/16 07:22:43;;;;;;;8.15;4.65;;;3.50;64.80;;;;;;4917931;28;114492;-83
2023/01/16 07:25:21;;;;;;;6.93;4.28;;;3.30;65.20;;;;;;4917457;28;114272;-85
2023/01/16 07:27:49;;;;;;;10.02;5.53;;;3.30;65.60;;;;;;4891010;28;115744;-85
2023/01/16 07:30:18;;;;;;;9.35;6.15;;;3.20;65.80;;;;;;4907790;28;114889;-85
2023/01/16 07:32:46;;;;;;;8.95;5.18;;;3.20;66.00;;;;;;4891256;28;116341;-85
2023/01/16 07:35:13;;;;;;;10.27;5.40;;;3.20;66.10;;;;;;4916988;28;114494;-85
2023/01/16 07:37:42;;;;;;;11.43;6.10;;;3.30;66.20;;;;;;4916461;28;115952;-86
2023/01/16 07:40:11;;;;;;;11.50;6.78;;;3.40;66.30;;;;;;4910848;28;115046;-84
2023/01/16 07:42:42;;;;;;;9.43;5.80;;;3.50;66.20;;;;;;4891400;28;115082;-85
2023/01/16 07:45:10;;;;;;;9.00;5.82;;;3.50;66.10;;;;;;4924001;28;114709;-84
2023/01/16 07:47:37;;;;;;;9.68;5.88;;;3.50;66.10;;;;;;4907268;28;114557;-84
2023/01/16 07:50:05;;;;;;;8.48;5.40;;;3.40;66.40;;;;;;4899278;28;114250;-86
2023/01/16 07:52:33;;;;;;;10.27;5.75;;;3.30;66.60;;;;;;4865126;28;114573;-87
2023/01/16 07:55:01;;;;;;;11.05;6.32;;;3.30;66.80;;;;;;4903759;28;116399;-85
2023/01/16 07:57:35;;;;;;;8.57;5.10;;;3.20;67.00;;;;;;4917381;28;119588;-85
2023/01/16 08:00:10;;;;;;;7.85;4.45;;;3.40;67.00;;;;;;4903340;28;114883;-85
2023/01/16 08:02:40;;;;;;;9.57;4.40;;;3.40;66.70;;;;;;4917814;28;114412;-87
2023/01/16 08:05:09;;;;;;;9.20;4.70;;;3.50;66.60;;;;;;4908601;28;114471;-85
2023/01/16 08:07:39;;;;;;;7.43;5.18;;;3.60;66.40;;;;;;4909987;28;115394;-86
2023/01/16 08:10:07;;;;;;;7.03;3.72;;;3.60;66.00;;;;;;4909085;28;115565;-84
2023/01/16 08:12:36;;;;;;;7.00;4.32;;;3.60;66.00;;;;;;4910195;28;114504;-85
2023/01/16 08:15:04;;;;;;;6.80;3.45;;;3.60;65.90;;;;;;4892513;28;114483;-86
2023/01/16 08:17:32;;;;;;;7.90;3.90;;;3.60;65.80;;;;;;4923856;28;117514;-85
2023/01/16 08:19:59;;;;;;;7.10;3.90;;;3.60;65.40;;;;;;4922900;28;118174;-84
2023/01/16 08:22:27;;;;;;;6.85;3.75;;;3.60;65.40;;;;;;4893851;28;115161;-85
2023/01/16 08:24:54;;;;;;;6.38;3.70;;;3.60;65.40;;;;;;4907437;28;114728;-85
2023/01/16 08:27:24;;;;;;;5.53;3.50;;;3.70;65.20;;;;;;4908819;28;115565;-84
2023/01/16 08:29:53;;;;;;;7.97;3.55;;;3.70;65.10;;;;;;4926594;28;114819;-85
2023/01/16 08:32:21;;;;;;;6.28;2.85;;;3.70;65.00;;;;;;4898447;28;114460;-86
2023/01/16 08:34:48;;;;;;;5.25;3.30;;;3.70;64.60;;;;;;4924178;28;114544;-85
2023/01/16 08:37:15;;;;;;;6.35;3.00;;;3.70;64.60;;;;;;4908938;28;118179;-85
2023/01/16 08:39:42;;;;;;;7.25;3.70;;;3.70;64.90;;;;;;4913177;28;114696;-83
2023/01/16 08:53:19;;;;;;;6.53;3.97;;;3.80;64.70;;;;;;4911839;28;114689;-85
2023/01/16 08:55:46;;;;;;;8.23;4.38;;;3.80;64.70;;;;;;4907130;28;114613;-85
2023/01/16 08:58:13;;;;;;;6.15;3.85;;;3.90;64.90;;;;;;4923777;28;115788;-85
2023/01/16 09:00:40;;;;;;;6.25;3.97;;;4.00;64.50;;;;;;4925559;28;114690;-85
2023/01/16 09:03:14;;;;;;;7.90;4.57;;;4.00;64.20;;;;;;4891602;28;114515;-84
2023/01/16 09:05:44;;;;;;;7.72;4.07;;;4.10;64.20;;;;;;4923828;28;114761;-83
2023/01/16 09:08:11;;;;;;;7.43;4.75;;;4.20;64.20;;;;;;4908664;28;115530;-85
2023/01/16 09:10:38;;;;;;;7.72;4.35;;;4.20;64.00;;;;;;4925963;28;114763;-85
2023/01/16 09:15:53;;;;;;;7.82;4.43;;;4.20;63.30;;;;;;4912661;28;114482;-85
2023/01/16 09:18:20;;;;;;;7.65;4.50;;;4.20;63.40;;;;;;4908027;28;115901;-85
2023/01/16 09:20:47;;;;;;;6.70;4.55;;;4.20;63.10;;;;;;4908974;28;115983;-85
2023/01/16 09:23:15;;;;;;;7.68;4.13;;;4.10;63.20;;;;;;4919133;28;114584;-84
2023/01/16 09:25:42;;;;;;;10.15;5.18;;;4.10;63.30;;;;;;4924555;28;114524;-84
2023/01/16 09:28:09;;;;;;;10.65;4.82;;;4.10;63.40;;;;;;4903522;28;115116;-84
2023/01/16 09:30:36;;;;;;;11.43;5.57;;;4.10;63.70;;;;;;4924696;28;116246;-85
2023/01/16 09:33:05;;;;;;;10.80;5.65;;;4.20;63.70;;;;;;4909965;28;114581;-85
2023/01/16 09:35:32;;;;;;;10.55;4.60;;;4.30;63.80;;;;;;4926561;28;114543;-84
2023/01/16 09:37:59;;;;;;;14.18;5.45;;;4.40;63.80;;;;;;4930006;28;114605;-84
2023/01/16 09:40:26;;;;;;;15.48;6.63;;;4.60;63.60;;;;;;4926155;28;114660;-85
2023/01/16 09:45:58;;;;;;;10.35;5.20;;;4.90;63.20;;;;;;4927521;28;115090;-85
2023/01/16 09:48:32;;;;;;;8.55;4.97;;;5.00;63.10;;;;;;4892619;28;117388;-85
2023/01/16 09:51:13;;;;;;;7.23;4.60;;;5.20;62.60;;;;;;4908592;28;115116;-86
2023/01/16 09:59:45;;;;;;;7.90;4.50;;;5.00;61.50;;;;;;4905460;28;115712;-84
2023/01/16 10:02:34;;;;;;;10.30;5.57;;;4.80;62.00;;;;;;4911539;28;115213;-86
2023/01/16 10:05:04;;;;;;;10.68;5.28;;;4.70;62.50;;;;;;4915675;28;114673;-85
2023/01/16 10:07:48;;;;;;;9.57;5.35;;;4.70;62.80;;;;;;4893420;28;114489;-84
2023/01/16 10:10:36;;;;;;;9.02;5.30;;;4.80;62.50;;;;;;4907671;28;117690;-85
2023/01/16 10:13:39;;;;;;;9.02;5.20;;;4.70;62.20;;;;;;4925552;28;114918;-84
2023/01/16 10:16:33;;;;;;;8.32;5.05;;;4.60;62.40;;;;;;4891810;28;114570;-84
2023/01/16 10:19:39;;;;;;;16.25;5.45;;;4.50;62.40;;;;;;4925647;28;114724;-85
2023/01/16 10:22:17;;;;;;;8.35;5.32;;;4.50;62.80;;;;;;4924248;28;115175;-86
2023/01/16 10:25:19;;;;;;;10.45;5.15;;;4.60;63.20;;;;;;4923981;28;114754;-83
2023/01/16 10:28:00;;;;;;;7.53;5.35;;;4.70;63.10;;;;;;4881807;28;114692;-85
2023/01/16 10:30:32;;;;;;;10.23;5.68;;;4.90;63.10;;;;;;4925354;28;114301;-84
2023/01/16 10:33:25;;;;;;;8.18;5.20;;;5.00;62.50;;;;;;4907693;28;115551;-84
2023/01/16 10:35:53;;;;;;;11.43;6.53;;;5.10;62.30;;;;;;4924209;28;117684;-87
2023/01/16 10:38:45;;;;;;;8.52;5.10;;;5.20;62.10;;;;;;4922793;28;114419;-86
2023/01/16 10:50:22;;;;;;;7.40;3.70;;;5.30;60.80;;;;;;4918020;28;114431;-86
2023/01/16 10:53:04;;;;;;;6.32;3.63;;;5.40;60.90;;;;;;4913088;28;114524;-86
2023/01/16 10:55:32;;;;;;;8.10;4.25;;;5.50;60.80;;;;;;4889532;28;119533;-86
2023/01/16 10:58:24;;;;;;;6.68;3.75;;;5.50;60.50;;;;;;4878150;28;115697;-87
2023/01/16 11:00:53;;;;;;;5.78;3.40;;;5.60;60.30;;;;;;4886188;28;115815;-86
2023/01/16 11:03:38;;;;;;;5.15;2.97;;;5.60;59.50;;;;;;4909014;28;114884;-86
2023/01/16 11:06:26;;;;;;;6.13;3.17;;;5.50;59.30;;;;;;4886111;28;116753;-87
2023/01/16 11:09:30;;;;;;;6.47;3.10;;;5.50;59.40;;;;;;4903268;28;115264;-85
2023/01/16 11:20:45;;;;;;;3.58;1.83;;;5.50;59.90;;;;;;4834249;28;117735;-86
2023/01/16 11:23:36;;;;;;;6.60;3.28;;;5.70;59.50;;;;;;4847583;28;114537;-86
2023/01/16 11:26:03;;;;;;;6.60;3.00;;;5.70;59.10;;;;;;4907713;28;114570;-86
2023/01/16 11:28:35;;;;;;;5.80;3.15;;;5.70;58.70;;;;;;4889427;28;118410;-86
2023/01/16 11:31:13;;;;;;;6.28;3.03;;;5.70;58.70;;;;;;4891559;28;117537;-87
2023/01/16 11:33:45;;;;;;;6.03;3.38;;;5.70;59.10;;;;;;4868014;28;114923;-87
2023/01/16 11:36:15;;;;;;;5.78;3.28;;;5.70;58.90;;;;;;4837151;28;114879;-88
2023/01/16 11:38:45;;;;;;;6.82;3.20;;;5.70;59.00;;;;;;4853607;28;115205;-87
2023/01/16 11:41:33;;;;;;;7.13;3.28;;;5.70;58.20;;;;;;4840576;28;114852;-87
2023/01/16 11:47:12;;;;;;;5.60;3.50;;;5.70;58.50;;;;;;4839987;28;115015;-88
2023/01/16 11:49:51;;;;;;;6.53;3.22;;;5.60;58.50;;;;;;4840962;28;115288;-86
2023/01/16 11:52:35;;;;;;;6.70;4.38;;;5.60;58.40;;;;;;4845092;28;115014;-86
2023/01/16 11:55:04;;;;;;;5.65;3.85;;;5.50;58.70;;;;;;4821166;28;115143;-87
2023/01/16 11:58:05;;;;;;;8.23;4.13;;;5.50;59.20;;;;;;4851791;28;114568;-86
2023/01/16 12:00:41;;;;;;;6.40;3.53;;;5.60;58.50;;;;;;4847422;28;117455;-86
2023/01/16 12:03:29;;;;;;;6.82;4.20;;;5.40;58.80;;;;;;4847994;29;116011;-86
2023/01/16 12:06:14;;;;;;;5.30;3.17;;;5.30;59.10;;;;;;4852636;28;114923;-85
2023/01/16 12:09:14;;;;;;;7.50;3.63;;;5.30;59.20;;;;;;4869413;28;117421;-86
2023/01/16 12:14:17;;;;;;;6.93;3.85;;;5.40;59.10;;;;;;4885840;28;115205;-86
2023/01/16 12:15:01;;;;;;;8.13;4.18;;;5.30;59.40;;;;;;4869055;28;116436;-86
2023/01/16 12:18:02;;;;;;;7.07;3.67;;;5.30;59.20;;;;;;4839116;28;114572;-87
2023/01/16 12:20:34;;;;;;;4.80;2.78;;;5.40;58.60;;;;;;4854873;28;114835;-87
2023/01/16 12:23:55;;;;;;;7.95;3.55;;;5.30;58.90;;;;;;4868882;28;115157;-87
2023/01/16 12:26:46;;;;;;;7.22;4.25;;;5.30;59.30;;;;;;4857943;28;114686;-86
2023/01/16 12:29:21;;;;;;;7.38;4.00;;;5.30;59.90;;;;;;4882991;28;118394;-86
2023/01/16 12:32:12;;;;;;;5.93;3.67;;;5.30;59.90;;;;;;4875754;28;117013;-87
2023/01/16 12:35:21;;;;;;;6.65;3.50;;;5.40;59.50;;;;;;4892817;28;115592;-86
2023/01/16 12:38:19;;;;;;;6.28;4.50;;;5.40;59.30;;;;;;4924911;28;114832;-87
2023/01/16 12:44:39;;;;;;;6.50;4.10;;;5.50;59.70;;;;;;4921643;28;115745;-87
2023/01/16 12:47:46;;;;;;;7.25;4.25;;;5.50;59.40;;;;;;4926367;28;116357;-86
2023/01/16 12:50:46;;;;;;;7.05;4.20;;;5.50;59.40;;;;;;4893223;28;114961;-87
2023/01/16 12:53:16;;;;;;;8.00;4.05;;;5.50;59.40;;;;;;4927028;28;114638;-85
2023/01/16 12:56:30;;;;;;;6.53;3.67;;;5.40;59.20;;;;;;4926561;28;114896;-85
2023/01/16 12:59:11;;;;;;;8.02;3.85;;;5.40;59.30;;;;;;4925113;28;116036;-86
2023/01/16 13:01:43;;;;;;;5.68;3.35;;;5.30;59.30;;;;;;4924853;28;114694;-85
2023/01/16 13:04:37;;;;;;;6.10;3.35;;;5.20;59.50;;;;;;4925290;28;114754;-86
2023/01/16 13:07:04;;;;;;;6.75;3.33;;;5.30;59.90;;;;;;4924965;28;114530;-86
2023/01/16 13:13:28;;;;;;;5.90;3.42;;;5.50;59.80;;;;;;4925157;28;114933;-87
2023/01/16 13:16:37;;;;;;;6.15;3.85;;;5.40;59.70;;;;;;4896421;28;114602;-87
2023/01/16 13:19:11;;;;;;;6.80;4.30;;;5.30;59.80;;;;;;4910763;28;115490;-86
2023/01/16 13:22:30;;;;;;;7.38;4.82;;;5.30;60.20;;;;;;4918785;28;115791;-85
2023/01/16 13:25:34;;;;;;;7.47;4.80;;;5.40;60.50;;;;;;4882324;28;114921;-85
2023/01/16 13:28:16;;;;;;;7.40;3.42;;;5.50;60.40;;;;;;4891997;28;115146;-86
2023/01/16 13:31:02;;;;;;;7.65;4.15;;;5.60;59.70;;;;;;4917458;28;114895;-86
2023/01/16 13:33:34;;;;;;;;;;;5.50;60.00;;;;;;4872417;28;118423;-86
2023/01/16 13:36:44;;;;;;;5.88;3.75;;;5.50;60.00;;;;;;4854958;28;118593;-86
2023/01/16 13:39:48;;;;;;;7.05;3.97;;;5.50;60.00;;;;;;4872424;28;115226;-86
2023/01/16 13:42:16;;;;;;;5.82;3.25;;;5.50;60.10;;;;;;4887890;28;114901;-86
2023/01/16 13:45:48;;;;;;;6.22;3.80;;;5.40;60.10;;;;;;4903119;28;115942;-85
2023/01/16 13:48:32;;;;;;;6.90;3.95;;;5.40;60.30;;;;;;4846410;29;117701;-86
2023/01/16 13:51:22;;;;;;;7.00;3.85;;;5.30;60.40;;;;;;4788969;29;114679;-86
2023/01/16 13:54:05;;;;;;;5.88;3.72;;;5.20;60.50;;;;;;4783994;29;114848;-86
2023/01/16 13:56:41;;;;;;;5.38;3.33;;;5.20;60.60;;;;;;4810707;29;115632;-86
2023/01/16 13:59:57;;;;;;;4.35;2.78;;;5.20;60.40;;;;;;4806388;29;114952;-86
2023/01/16 14:02:36;;;;;;;8.07;3.65;;;5.20;60.60;;;;;;4767573;29;114761;-86
2023/01/16 14:05:39;;;;;;;5.68;3.00;;;5.20;60.90;;;;;;4830357;29;114636;-86
2023/01/16 14:11:57;;;;;;;7.22;4.13;;;5.20;60.60;;;;;;4832769;29;114738;-86
2023/01/16 14:17:52;;;;;;;7.63;4.07;;;5.20;60.70;;;;;;4820381;29;114493;-89
2023/01/16 14:20:51;;;;;;;7.78;3.88;;;5.20;60.90;;;;;;4842808;28;119038;-85
2023/01/16 14:26:33;;;;;;;7.20;4.00;;;5.10;60.90;;;;;;4908958;28;114858;-86
2023/01/16 14:29:01;;;;;;;6.93;4.32;;;4.90;61.10;;;;;;4924772;28;114828;-85
2023/01/16 14:31:41;;;;;;;10.07;4.65;;;4.90;61.30;;;;;;4917860;28;119901;-86
2023/01/16 14:34:20;;;;;;;23.45;12.40;;;4.90;61.60;;;;;;4907285;28;116171;-85
2023/01/16 14:37:04;;;;;;;14.63;8.27;;;4.90;61.70;;;;;;4899276;28;117779;-86
2023/01/16 14:39:38;;;;;;;11.80;8.75;;;4.90;61.70;;;;;;4917044;28;114515;-86
2023/01/16 14:57:25;;;;;;;12.77;7.93;;;4.70;62.10;;;;;;4869655;28;114864;-87